createdAt,value
2023-05-24T00:00:44.528Z,1.52
2023-05-24T00:01:44.485Z,1.51
2023-05-24T00:02:43.684Z,1.53
2023-05-24T00:03:43.726Z,1.54
2023-05-24T00:04:44.660Z,1.52
2023-05-24T00:05:43.616Z,1.52
2023-05-24T00:06:43.646Z,1.50
2023-05-24T00:07:43.692Z,1.52
2023-05-24T00:08:44.700Z,1.50
2023-05-24T00:09:44.726Z,1.53
2023-05-24T00:10:44.930Z,1.50
2023-05-24T00:11:44.828Z,1.52
2023-05-24T00:12:43.837Z,1.51
2023-05-24T00:13:44.877Z,1.53
2023-05-24T00:14:44.932Z,1.51
2023-05-24T00:15:44.968Z,1.48
2023-05-24T00:16:45.055Z,1.49
2023-05-24T00:17:44.099Z,1.52
2023-05-24T00:18:45.090Z,1.50
2023-05-24T00:19:44.108Z,1.50
2023-05-24T00:20:44.474Z,1.49
2023-05-24T00:21:44.186Z,1.48
2023-05-24T00:22:44.237Z,1.50
2023-05-24T00:23:44.225Z,1.50
2023-05-24T00:24:44.258Z,1.48
2023-05-24T00:25:45.308Z,1.49
2023-05-24T00:26:45.338Z,1.50
2023-05-24T00:27:45.385Z,1.46
2023-05-24T00:28:44.436Z,1.47
2023-05-24T00:29:44.479Z,1.47
2023-05-24T00:30:44.767Z,1.49
2023-05-24T00:31:45.623Z,1.46
2023-05-24T00:32:44.640Z,1.45
2023-05-24T00:33:45.619Z,1.47
2023-05-24T00:34:45.675Z,1.47
2023-05-24T00:35:45.728Z,1.44
2023-05-24T00:36:45.742Z,1.44
2023-05-24T00:37:45.921Z,1.46
2023-05-24T00:38:45.867Z,1.46
2023-05-24T00:39:45.852Z,1.46
2023-05-24T00:40:45.873Z,1.45
2023-05-24T00:41:44.887Z,1.46
2023-05-24T00:42:45.974Z,1.47
2023-05-24T00:43:44.970Z,1.46
2023-05-24T00:44:45.002Z,1.45
2023-05-24T00:45:45.112Z,1.44
2023-05-24T00:46:45.087Z,1.44
2023-05-24T00:47:46.196Z,1.46
2023-05-24T00:48:46.144Z,1.43
2023-05-24T00:49:45.208Z,1.46
2023-05-24T00:50:45.245Z,1.44
2023-05-24T00:51:46.223Z,1.44
2023-05-24T00:52:46.261Z,1.46
2023-05-24T00:53:46.296Z,1.45
2023-05-24T00:54:46.362Z,1.47
2023-05-24T00:55:46.370Z,1.45
2023-05-24T00:56:46.390Z,1.43
2023-05-24T00:57:46.419Z,1.46
2023-05-24T00:58:45.453Z,1.46
2023-05-24T00:59:46.447Z,1.45
2023-05-24T01:00:46.479Z,1.43
2023-05-24T01:01:45.561Z,1.46
2023-05-24T01:02:45.596Z,1.45
2023-05-24T01:03:46.798Z,1.45
2023-05-24T01:04:45.527Z,1.46
2023-05-24T01:05:46.568Z,1.45
2023-05-24T01:06:46.591Z,1.44
2023-05-24T01:07:46.652Z,1.46
2023-05-24T01:08:46.641Z,1.43
2023-05-24T01:09:46.678Z,1.47
2023-05-24T01:10:45.680Z,1.44
2023-05-24T01:11:46.701Z,1.43
2023-05-24T01:12:46.725Z,1.45
2023-05-24T01:13:46.815Z,1.46
2023-05-24T01:14:45.782Z,1.48
2023-05-24T01:15:45.841Z,1.46
2023-05-24T01:16:46.855Z,1.44
2023-05-24T01:17:46.896Z,1.45
2023-05-24T01:18:45.891Z,1.45
2023-05-24T01:19:45.891Z,1.45
2023-05-24T01:20:46.158Z,1.44
2023-05-24T01:21:46.959Z,1.46
2023-05-24T01:22:46.975Z,1.44
2023-05-24T01:23:46.983Z,1.45
2023-05-24T01:24:47.007Z,1.43
2023-05-24T01:25:46.071Z,1.43
2023-05-24T01:26:47.053Z,1.44
2023-05-24T01:27:46.098Z,1.44
2023-05-24T01:28:46.085Z,1.45
2023-05-24T01:29:46.103Z,1.45
2023-05-24T01:30:46.137Z,1.45
2023-05-24T01:31:47.294Z,1.44
2023-05-24T01:32:47.262Z,1.43
2023-05-24T01:33:47.228Z,1.44
2023-05-24T01:34:47.265Z,1.45
2023-05-24T01:35:47.298Z,1.41
2023-05-24T01:36:47.300Z,1.42
2023-05-24T01:37:46.327Z,1.43
2023-05-24T01:38:46.345Z,1.41
2023-05-24T01:39:46.363Z,1.44
2023-05-24T01:40:47.395Z,1.41
2023-05-24T01:41:47.412Z,1.43
2023-05-24T01:42:47.422Z,1.42
2023-05-24T01:43:47.444Z,1.39
2023-05-24T01:44:46.441Z,1.40
2023-05-24T01:45:47.485Z,1.43
2023-05-24T01:46:47.514Z,1.38
2023-05-24T01:47:46.582Z,1.41
2023-05-24T01:48:47.537Z,1.39
2023-05-24T01:49:47.561Z,1.38
2023-05-24T01:50:47.559Z,1.39
2023-05-24T01:51:47.642Z,1.40
2023-05-24T01:52:46.626Z,1.42
2023-05-24T01:53:47.723Z,1.40
2023-05-24T01:54:47.628Z,1.40
2023-05-24T01:55:46.677Z,1.40
2023-05-24T01:56:46.709Z,1.37
2023-05-24T01:57:46.729Z,1.39
2023-05-24T01:58:47.727Z,1.35
2023-05-24T01:59:47.742Z,1.39
2023-05-24T02:00:47.847Z,1.38
2023-05-24T02:01:47.785Z,1.38
2023-05-24T02:02:46.928Z,1.39
2023-05-24T02:03:47.830Z,1.35
2023-05-24T02:04:47.884Z,1.39
2023-05-24T02:05:46.892Z,1.37
2023-05-24T02:06:48.520Z,1.34
2023-05-24T02:07:47.924Z,1.39
2023-05-24T02:08:47.889Z,1.37
2023-05-24T02:09:47.900Z,1.37
2023-05-24T02:10:46.889Z,1.36
2023-05-24T02:11:47.912Z,1.38
2023-05-24T02:12:47.927Z,1.37
2023-05-24T02:13:47.922Z,1.36
2023-05-24T02:14:47.944Z,1.36
2023-05-24T02:15:48.032Z,1.36
2023-05-24T02:16:48.011Z,1.39
2023-05-24T02:17:47.072Z,1.38
2023-05-24T02:18:47.004Z,1.35
2023-05-24T02:19:48.031Z,1.36
2023-05-24T02:20:47.120Z,1.36
2023-05-24T02:21:48.029Z,1.37
2023-05-24T02:22:48.060Z,1.37
2023-05-24T02:23:47.139Z,1.33
2023-05-24T02:24:47.074Z,1.33
2023-05-24T02:25:48.105Z,1.33
2023-05-24T02:26:47.102Z,1.34
2023-05-24T02:27:48.148Z,1.35
2023-05-24T02:28:47.127Z,1.34
2023-05-24T02:29:48.112Z,1.35
2023-05-24T02:30:48.179Z,1.36
2023-05-24T02:31:47.128Z,1.36
2023-05-24T02:32:47.179Z,1.31
2023-05-24T02:33:47.148Z,1.32
2023-05-24T02:34:47.163Z,1.34
2023-05-24T02:35:47.169Z,1.33
2023-05-24T02:36:47.176Z,1.31
2023-05-24T02:37:48.200Z,1.33
2023-05-24T02:38:47.217Z,1.32
2023-05-24T02:39:47.252Z,1.31
2023-05-24T02:40:48.225Z,1.30
2023-05-24T02:41:48.230Z,1.33
2023-05-24T02:42:48.232Z,1.32
2023-05-24T02:43:47.277Z,1.32
2023-05-24T02:44:48.274Z,1.30
2023-05-24T02:45:48.275Z,1.31
2023-05-24T02:46:48.348Z,1.30
2023-05-24T02:47:48.328Z,1.30
2023-05-24T02:48:47.314Z,1.28
2023-05-24T02:49:47.316Z,1.29
2023-05-24T02:50:48.327Z,1.28
2023-05-24T02:51:47.392Z,1.27
2023-05-24T02:52:48.410Z,1.31
2023-05-24T02:53:48.409Z,1.30
2023-05-24T02:54:48.420Z,1.29
2023-05-24T02:55:47.430Z,1.29
2023-05-24T02:56:47.423Z,1.30
2023-05-24T02:57:48.604Z,1.28
2023-05-24T02:58:48.442Z,1.30
2023-05-24T02:59:47.454Z,1.28
2023-05-24T03:00:47.468Z,1.29
2023-05-24T03:01:48.483Z,1.28
2023-05-24T03:02:48.532Z,1.29
2023-05-24T03:03:48.580Z,1.29
2023-05-24T03:04:47.528Z,1.27
2023-05-24T03:05:48.577Z,1.27
2023-05-24T03:06:48.570Z,1.27
2023-05-24T03:07:48.574Z,1.27
2023-05-24T03:08:48.700Z,1.28
2023-05-24T03:09:48.592Z,1.24
2023-05-24T03:10:48.653Z,1.25
2023-05-24T03:11:48.677Z,1.27
2023-05-24T03:12:48.692Z,1.27
2023-05-24T03:13:47.635Z,1.27
2023-05-24T03:14:47.636Z,1.27
2023-05-24T03:15:48.802Z,1.25
2023-05-24T03:16:47.673Z,1.26
2023-05-24T03:17:48.777Z,1.24
2023-05-24T03:18:48.775Z,1.25
2023-05-24T03:19:47.836Z,1.25
2023-05-24T03:20:48.790Z,1.25
2023-05-24T03:21:48.812Z,1.24
2023-05-24T03:22:47.760Z,1.25
2023-05-24T03:23:48.806Z,1.26
2023-05-24T03:24:48.920Z,1.23
2023-05-24T03:25:48.815Z,1.23
2023-05-24T03:26:47.821Z,1.24
2023-05-24T03:27:47.869Z,1.24
2023-05-24T03:28:47.837Z,1.25
2023-05-24T03:29:48.853Z,1.24
2023-05-24T03:30:47.866Z,1.23
2023-05-24T03:31:48.919Z,1.23
2023-05-24T03:32:48.950Z,1.23
2023-05-24T03:33:48.930Z,1.20
2023-05-24T03:34:48.907Z,1.23
2023-05-24T03:35:48.901Z,1.22
2023-05-24T03:36:48.934Z,1.22
2023-05-24T03:37:47.939Z,1.20
2023-05-24T03:38:47.922Z,1.20
2023-05-24T03:39:47.979Z,1.22
2023-05-24T03:40:48.942Z,1.21
2023-05-24T03:41:49.053Z,1.21
2023-05-24T03:42:48.988Z,1.22
2023-05-24T03:43:49.019Z,1.21
2023-05-24T03:44:49.004Z,1.20
2023-05-24T03:45:49.039Z,1.21
2023-05-24T03:46:49.049Z,1.21
2023-05-24T03:47:49.100Z,1.20
2023-05-24T03:48:48.081Z,1.19
2023-05-24T03:49:49.054Z,1.19
2023-05-24T03:50:49.077Z,1.19
2023-05-24T03:51:49.131Z,1.20
2023-05-24T03:52:48.096Z,1.19
2023-05-24T03:53:48.105Z,1.18
2023-05-24T03:54:49.141Z,1.19
2023-05-24T03:55:49.153Z,1.17
2023-05-24T03:56:49.148Z,1.17
2023-05-24T03:57:48.173Z,1.18
2023-05-24T03:58:49.181Z,1.17
2023-05-24T03:59:49.211Z,1.17
2023-05-24T04:00:49.213Z,1.17
2023-05-24T04:01:48.241Z,1.18
2023-05-24T04:02:49.345Z,1.17
2023-05-24T04:03:49.339Z,1.16
2023-05-24T04:04:48.286Z,1.17
2023-05-24T04:05:49.318Z,1.18
2023-05-24T04:06:49.322Z,1.16
2023-05-24T04:07:49.321Z,1.14
2023-05-24T04:08:48.320Z,1.17
2023-05-24T04:09:48.350Z,1.16
2023-05-24T04:10:49.369Z,1.16
2023-05-24T04:11:49.358Z,1.16
2023-05-24T04:12:48.382Z,1.14
2023-05-24T04:13:48.413Z,1.15
2023-05-24T04:14:49.414Z,1.17
2023-05-24T04:15:49.456Z,1.15
2023-05-24T04:16:49.483Z,1.14
2023-05-24T04:17:49.543Z,1.12
2023-05-24T04:18:49.562Z,1.13
2023-05-24T04:19:49.516Z,1.13
2023-05-24T04:20:49.508Z,1.13
2023-05-24T04:21:49.523Z,1.15
2023-05-24T04:22:49.542Z,1.13
2023-05-24T04:23:49.571Z,1.12
2023-05-24T04:24:49.581Z,1.13
2023-05-24T04:25:49.585Z,1.14
2023-05-24T04:26:49.590Z,1.15
2023-05-24T04:27:49.599Z,1.12
2023-05-24T04:28:49.627Z,1.12
2023-05-24T04:29:49.656Z,1.13
2023-05-24T04:30:48.647Z,1.13
2023-05-24T04:31:48.838Z,1.10
2023-05-24T04:32:49.722Z,1.13
2023-05-24T04:33:49.695Z,1.10
2023-05-24T04:34:48.689Z,1.10
2023-05-24T04:35:49.709Z,1.13
2023-05-24T04:36:49.722Z,1.12
2023-05-24T04:37:48.713Z,1.12
2023-05-24T04:38:49.765Z,1.10
2023-05-24T04:39:48.745Z,1.12
2023-05-24T04:40:49.781Z,1.10
2023-05-24T04:41:48.792Z,1.11
2023-05-24T04:42:48.786Z,1.10
2023-05-24T04:43:49.812Z,1.08
2023-05-24T04:44:48.819Z,1.11
2023-05-24T04:45:48.825Z,1.09
2023-05-24T04:46:48.918Z,1.09
2023-05-24T04:47:50.090Z,1.10
2023-05-24T04:48:48.897Z,1.10
2023-05-24T04:49:49.918Z,1.10
2023-05-24T04:50:49.920Z,1.09
2023-05-24T04:51:49.937Z,1.09
2023-05-24T04:52:49.951Z,1.08
2023-05-24T04:53:49.973Z,1.07
2023-05-24T04:54:49.982Z,1.07
2023-05-24T04:55:49.994Z,0.99
2023-05-24T04:56:50.012Z,1.05
2023-05-24T04:57:50.089Z,0.98
2023-05-24T04:58:50.097Z,0.92
2023-05-24T04:59:50.149Z,0.82
2023-05-24T05:00:50.172Z,0.78
2023-05-24T05:01:50.215Z,0.71
2023-05-24T05:02:50.245Z,0.62
2023-05-24T05:03:50.330Z,0.58
2023-05-24T05:04:49.274Z,0.58
2023-05-24T05:05:51.021Z,0.56
2023-05-24T05:06:50.346Z,0.52
2023-05-24T05:07:50.357Z,0.50
2023-05-24T05:08:49.386Z,0.50
2023-05-24T05:09:49.412Z,0.50
2023-05-24T05:10:50.443Z,0.50
2023-05-24T05:11:50.497Z,0.51
2023-05-24T05:12:50.498Z,0.50
2023-05-24T05:13:50.601Z,0.50
2023-05-24T05:14:49.590Z,0.51
2023-05-24T05:15:50.616Z,0.51
2023-05-24T05:16:49.817Z,0.51
2023-05-24T05:17:50.846Z,0.50
2023-05-24T05:18:49.789Z,0.50
2023-05-24T05:19:50.861Z,0.51
2023-05-24T05:20:50.875Z,0.50
2023-05-24T05:21:49.922Z,0.51
2023-05-24T05:22:49.953Z,0.51
2023-05-24T05:23:51.003Z,0.50
2023-05-24T05:24:51.013Z,0.50
2023-05-24T05:25:50.069Z,0.51
2023-05-24T05:26:50.092Z,0.50
2023-05-24T05:27:51.122Z,0.50
2023-05-24T05:28:51.178Z,0.51
2023-05-24T05:29:51.224Z,0.52
2023-05-24T05:30:51.266Z,0.52
2023-05-24T05:31:51.363Z,0.54
2023-05-24T05:32:50.477Z,0.55
2023-05-24T05:33:50.357Z,0.59
2023-05-24T05:34:51.381Z,0.66
2023-05-24T05:35:51.747Z,0.68
2023-05-24T05:36:50.440Z,0.91
2023-05-24T05:37:50.489Z,0.74
2023-05-24T05:38:50.513Z,0.72
2023-05-24T05:39:51.547Z,0.76
2023-05-24T05:40:51.556Z,0.78
2023-05-24T05:41:51.571Z,0.80
2023-05-24T05:42:51.624Z,0.85
2023-05-24T05:43:51.678Z,0.86
2023-05-24T05:44:51.704Z,0.90
2023-05-24T05:45:51.802Z,0.93
2023-05-24T05:46:51.789Z,0.96
2023-05-24T05:47:51.881Z,0.98
2023-05-24T05:48:50.904Z,1.05
2023-05-24T05:49:51.934Z,1.13
2023-05-24T05:50:50.964Z,1.17
2023-05-24T05:51:52.021Z,1.20
2023-05-24T05:52:51.998Z,1.28
2023-05-24T05:53:52.116Z,1.12
2023-05-24T05:54:52.083Z,0.84
2023-05-24T05:55:51.110Z,0.81
2023-05-24T05:56:52.343Z,0.77
2023-05-24T05:57:52.149Z,0.79
2023-05-24T05:58:51.172Z,0.81
2023-05-24T05:59:52.199Z,0.83
2023-05-24T06:00:52.247Z,0.83
2023-05-24T06:01:51.298Z,0.81
2023-05-24T06:02:52.619Z,0.71
2023-05-24T06:03:52.490Z,0.66
2023-05-24T06:04:52.536Z,0.68
2023-05-24T06:05:51.439Z,0.72
2023-05-24T06:06:51.475Z,0.72
2023-05-24T06:07:51.562Z,0.67
2023-05-24T06:08:52.534Z,0.63
2023-05-24T06:09:51.551Z,0.70
2023-05-24T06:10:53.152Z,0.75
2023-05-24T06:11:51.669Z,0.73
2023-05-24T06:12:51.691Z,0.74
2023-05-24T06:13:51.723Z,0.69
2023-05-24T06:14:52.784Z,0.62
2023-05-24T06:15:52.826Z,0.67
2023-05-24T06:16:51.830Z,0.66
2023-05-24T06:17:52.928Z,0.62
2023-05-24T06:19:04.688Z,0.63
2023-05-24T06:19:52.961Z,0.63
2023-05-24T06:20:52.933Z,0.64
2023-05-24T06:21:51.892Z,0.56
2023-05-24T06:22:51.889Z,0.57
2023-05-24T06:23:51.930Z,0.63
2023-05-24T06:24:52.906Z,0.58
2023-05-24T06:25:52.988Z,0.61
2023-05-24T06:26:52.855Z,0.58
2023-05-24T06:27:52.859Z,0.65
2023-05-24T06:28:52.895Z,0.58
2023-05-24T06:29:51.877Z,0.63
2023-05-24T06:30:52.927Z,0.64
2023-05-24T06:31:53.088Z,0.63
2023-05-24T06:32:52.882Z,0.56
2023-05-24T06:34:03.959Z,0.54
2023-05-24T06:34:52.828Z,0.54
2023-05-24T06:35:52.829Z,0.49
2023-05-24T06:36:51.920Z,0.47
2023-05-24T06:37:52.801Z,0.52
2023-05-24T06:38:51.781Z,0.51
2023-05-24T06:39:52.825Z,0.60
2023-05-24T06:40:52.801Z,0.54
2023-05-24T06:41:51.784Z,0.50
2023-05-24T06:42:52.801Z,0.52
2023-05-24T06:43:52.750Z,0.52
2023-05-24T06:44:51.762Z,0.50
2023-05-24T06:45:53.007Z,0.52
2023-05-24T06:46:51.792Z,0.51
2023-05-24T06:47:52.814Z,0.54
2023-05-24T06:48:51.822Z,0.50
2023-05-24T06:49:51.755Z,0.51
2023-05-24T06:50:52.713Z,0.56
2023-05-24T06:51:52.723Z,0.67
2023-05-24T06:52:52.746Z,0.59
2023-05-24T06:53:52.733Z,0.57
2023-05-24T06:54:53.061Z,0.58
2023-05-24T06:55:53.974Z,0.59
2023-05-24T06:56:52.685Z,0.61
2023-05-24T06:57:52.668Z,0.61
2023-05-24T06:58:52.660Z,0.60
2023-05-24T06:59:53.062Z,0.64
2023-05-24T07:00:52.716Z,0.67
2023-05-24T07:01:52.673Z,0.66
2023-05-24T07:02:51.754Z,0.64
2023-05-24T07:03:52.662Z,0.66
2023-05-24T07:04:52.724Z,0.67
2023-05-24T07:05:52.624Z,0.68
2023-05-24T07:06:51.639Z,0.68
2023-05-24T07:07:51.601Z,0.67
2023-05-24T07:08:52.594Z,0.67
2023-05-24T07:09:52.575Z,0.67
2023-05-24T07:10:52.585Z,0.69
2023-05-24T07:11:52.621Z,0.67
2023-05-24T07:12:51.562Z,0.71
2023-05-24T07:13:52.549Z,0.74
2023-05-24T07:14:52.567Z,0.73
2023-05-24T07:15:51.544Z,0.72
2023-05-24T07:16:51.591Z,0.74
2023-05-24T07:17:51.574Z,0.74
2023-05-24T07:18:51.554Z,0.77
2023-05-24T07:19:52.562Z,0.74
2023-05-24T07:20:52.742Z,0.74
2023-05-24T07:21:51.502Z,0.73
2023-05-24T07:22:51.497Z,0.72
2023-05-24T07:23:51.517Z,0.74
2023-05-24T07:24:52.496Z,0.75
2023-05-24T07:25:52.505Z,0.80
2023-05-24T07:26:52.500Z,0.77
2023-05-24T07:27:52.699Z,0.76
2023-05-24T07:28:52.560Z,0.74
2023-05-24T07:29:51.591Z,0.71
2023-05-24T07:30:52.959Z,0.70
2023-05-24T07:31:52.712Z,0.72
2023-05-24T07:32:51.796Z,0.77
2023-05-24T07:33:51.749Z,0.77
2023-05-24T07:34:52.806Z,0.74
2023-05-24T07:35:51.848Z,0.70
2023-05-24T07:36:51.849Z,0.73
2023-05-24T07:37:52.874Z,0.85
2023-05-24T07:38:52.912Z,0.96
2023-05-24T07:39:51.965Z,1.04
2023-05-24T07:40:53.000Z,1.08
2023-05-24T07:41:53.033Z,1.02
2023-05-24T07:42:53.070Z,0.93
2023-05-24T07:43:53.135Z,0.96
2023-05-24T07:44:53.130Z,1.28
2023-05-24T07:45:53.179Z,3.33
2023-05-24T07:46:52.355Z,4.62
2023-05-24T07:47:53.303Z,4.19
2023-05-24T07:48:53.283Z,3.85
2023-05-24T07:49:52.594Z,2.75
2023-05-24T07:50:52.208Z,2.39
2023-05-24T07:51:52.193Z,2.20
2023-05-24T07:52:52.202Z,2.17
2023-05-24T07:53:52.187Z,2.20
2023-05-24T07:54:52.173Z,2.36
2023-05-24T07:55:53.167Z,2.29
2023-05-24T07:56:53.160Z,2.36
2023-05-24T07:57:52.145Z,2.45
2023-05-24T07:58:52.194Z,2.62
2023-05-24T07:59:52.191Z,2.76
2023-05-24T08:00:52.156Z,2.98
2023-05-24T08:01:53.238Z,3.14
2023-05-24T08:02:53.158Z,3.05
2023-05-24T08:03:53.221Z,3.17
2023-05-24T08:04:52.113Z,3.31
2023-05-24T08:05:53.098Z,3.41
2023-05-24T08:06:52.184Z,3.52
2023-05-24T08:07:53.077Z,3.70
2023-05-24T08:08:52.084Z,3.84
2023-05-24T08:09:53.088Z,3.85
2023-05-24T08:10:52.063Z,4.04
2023-05-24T08:11:52.122Z,4.17
2023-05-24T08:12:52.059Z,4.22
2023-05-24T08:13:53.057Z,4.45
2023-05-24T08:14:52.168Z,4.67
2023-05-24T08:15:53.084Z,5.44
2023-05-24T08:16:52.189Z,5.51
2023-05-24T08:17:53.102Z,6.02
2023-05-24T08:18:55.106Z,5.97
2023-05-24T08:19:53.048Z,6.36
2023-05-24T08:20:53.004Z,6.36
2023-05-24T08:21:53.004Z,6.31
2023-05-24T08:22:52.979Z,6.29
2023-05-24T08:23:52.973Z,6.36
2023-05-24T08:24:51.966Z,6.55
2023-05-24T08:25:52.956Z,6.76
2023-05-24T08:26:52.959Z,6.72
2023-05-24T08:27:53.049Z,6.96
2023-05-24T08:28:51.942Z,7.23
2023-05-24T08:29:55.401Z,7.51
2023-05-24T08:30:52.926Z,7.54
2023-05-24T08:31:53.263Z,7.68
2023-05-24T08:32:51.946Z,7.91
2023-05-24T08:33:52.916Z,8.27
2023-05-24T08:34:57.765Z,8.86
2023-05-24T08:35:52.910Z,7.56
2023-05-24T08:36:52.887Z,7.72
2023-05-24T08:37:52.876Z,8.07
2023-05-24T08:38:51.878Z,8.56
2023-05-24T08:39:51.868Z,9.40
2023-05-24T08:40:52.853Z,9.41
2023-05-24T08:42:07.950Z,9.42
2023-05-24T08:42:52.899Z,9.45
2023-05-24T08:43:51.843Z,9.46
2023-05-24T08:44:53.126Z,8.65
2023-05-24T08:45:52.858Z,8.80
2023-05-24T08:46:51.805Z,8.62
2023-05-24T08:47:53.036Z,8.87
2023-05-24T08:48:51.898Z,8.71
2023-05-24T08:49:52.807Z,8.68
2023-05-24T08:50:52.803Z,8.58
2023-05-24T08:51:51.794Z,8.54
2023-05-24T08:52:51.800Z,8.62
2023-05-24T08:53:51.792Z,8.60
2023-05-24T08:54:53.193Z,8.61
2023-05-24T08:55:52.794Z,8.56
2023-05-24T08:56:52.843Z,8.29
2023-05-24T08:57:51.843Z,7.96
2023-05-24T08:58:52.868Z,7.98
2023-05-24T08:59:52.898Z,7.96
2023-05-24T09:00:52.945Z,8.15
2023-05-24T09:01:53.002Z,7.90
2023-05-24T09:02:53.101Z,7.86
2023-05-24T09:03:52.168Z,7.88
2023-05-24T09:04:53.121Z,7.94
2023-05-24T09:05:53.162Z,7.89
2023-05-24T09:06:53.199Z,7.66
2023-05-24T09:07:53.235Z,7.63
2023-05-24T09:08:52.270Z,7.70
2023-05-24T09:09:53.327Z,7.46
2023-05-24T09:10:55.059Z,7.60
2023-05-24T09:11:53.341Z,7.79
2023-05-24T09:12:53.324Z,7.55
2023-05-24T09:13:53.333Z,7.63
2023-05-24T09:14:53.306Z,7.44
2023-05-24T09:15:53.416Z,7.34
2023-05-24T09:16:53.286Z,7.27
2023-05-24T09:17:53.329Z,7.21
2023-05-24T09:18:53.282Z,7.12
2023-05-24T09:19:53.411Z,7.07
2023-05-24T09:20:52.308Z,6.97
2023-05-24T09:21:52.258Z,7.01
2023-05-24T09:22:53.276Z,6.89
2023-05-24T09:23:52.239Z,6.98
2023-05-24T09:24:52.227Z,6.93
2023-05-24T09:25:53.223Z,6.80
2023-05-24T09:26:53.244Z,7.05
2023-05-24T09:27:53.250Z,6.86
2023-05-24T09:28:53.203Z,6.93
2023-05-24T09:29:52.331Z,6.80
2023-05-24T09:30:53.265Z,6.72
2023-05-24T09:31:53.240Z,6.74
2023-05-24T09:32:53.227Z,6.60
2023-05-24T09:33:52.191Z,6.49
2023-05-24T09:34:52.181Z,6.44
2023-05-24T09:35:52.256Z,6.51
2023-05-24T09:36:52.158Z,6.49
2023-05-24T09:37:53.151Z,6.33
2023-05-24T09:38:53.191Z,6.41
2023-05-24T09:39:52.236Z,6.39
2023-05-24T09:40:53.284Z,6.31
2023-05-24T09:41:53.307Z,6.28
2023-05-24T09:42:53.377Z,6.34
2023-05-24T09:43:53.382Z,6.24
2023-05-24T09:44:53.400Z,6.15
2023-05-24T09:45:53.456Z,6.11
2023-05-24T09:46:53.523Z,6.16
2023-05-24T09:47:53.578Z,5.83
2023-05-24T09:48:53.503Z,4.02
2023-05-24T09:49:52.532Z,3.32
2023-05-24T09:50:52.646Z,2.96
2023-05-24T09:51:53.634Z,2.51
2023-05-24T09:52:53.638Z,2.36
2023-05-24T09:53:53.658Z,2.16
2023-05-24T09:54:53.709Z,1.84
2023-05-24T09:55:52.765Z,1.64
2023-05-24T09:56:52.796Z,1.43
2023-05-24T09:58:14.873Z,1.32
2023-05-24T09:58:53.877Z,1.28
2023-05-24T09:59:52.854Z,1.23
2023-05-24T10:00:52.879Z,1.14
2023-05-24T10:01:53.943Z,1.11
2023-05-24T10:02:54.262Z,1.12
2023-05-24T10:03:52.945Z,1.09
2023-05-24T10:04:53.938Z,1.04
2023-05-24T10:05:52.814Z,0.97
2023-05-24T10:06:53.788Z,0.92
2023-05-24T10:07:53.818Z,0.93
2023-05-24T10:08:53.764Z,0.87
2023-05-24T10:09:52.782Z,0.85
2023-05-24T10:10:52.789Z,0.90
2023-05-24T10:11:53.800Z,0.83
2023-05-24T10:12:53.782Z,0.79
2023-05-24T10:13:53.762Z,0.84
2023-05-24T10:14:53.738Z,0.88
2023-05-24T10:15:53.759Z,0.88
2023-05-24T10:16:52.761Z,0.89
2023-05-24T10:17:53.764Z,0.86
2023-05-24T10:18:53.803Z,0.88
2023-05-24T10:19:53.735Z,0.80
2023-05-24T10:20:53.315Z,0.80
2023-05-24T10:21:53.767Z,0.76
2023-05-24T10:22:52.699Z,0.76
2023-05-24T10:23:53.712Z,0.70
2023-05-24T10:24:52.683Z,0.69
2023-05-24T10:25:52.678Z,0.69
2023-05-24T10:26:52.653Z,0.71
2023-05-24T10:27:53.650Z,0.69
2023-05-24T10:28:53.623Z,0.70
2023-05-24T10:29:52.618Z,0.70
2023-05-24T10:30:53.682Z,0.69
2023-05-24T10:31:53.602Z,0.68
2023-05-24T10:32:53.652Z,0.71
2023-05-24T10:33:54.420Z,0.62
2023-05-24T10:34:53.651Z,0.63
2023-05-24T10:35:53.691Z,0.64
2023-05-24T10:36:53.644Z,0.69
2023-05-24T10:37:53.630Z,0.72
2023-05-24T10:38:52.638Z,0.84
2023-05-24T10:39:53.640Z,0.90
2023-05-24T10:40:53.624Z,0.92
2023-05-24T10:41:53.630Z,1.01
2023-05-24T10:42:53.596Z,1.15
2023-05-24T10:44:07.910Z,1.23
2023-05-24T10:44:53.589Z,1.23
2023-05-24T10:45:53.629Z,1.24
2023-05-24T10:46:53.638Z,1.23
2023-05-24T10:47:53.625Z,1.23
2023-05-24T10:48:52.572Z,1.24
2023-05-24T10:49:52.574Z,1.21
2023-05-24T10:50:52.560Z,1.23
2023-05-24T10:51:53.550Z,1.19
2023-05-24T10:52:53.538Z,1.21
2023-05-24T10:53:53.533Z,1.23
2023-05-24T10:55:03.294Z,1.27
2023-05-24T10:55:53.647Z,1.28
2023-05-24T10:56:53.524Z,1.29
2023-05-24T10:57:52.505Z,1.29
2023-05-24T10:58:52.495Z,1.26
2023-05-24T10:59:52.504Z,1.30
2023-05-24T11:00:52.720Z,1.39
2023-05-24T11:01:53.523Z,1.30
2023-05-24T11:02:53.516Z,1.33
2023-05-24T11:03:53.466Z,1.36
2023-05-24T11:04:52.451Z,1.39
2023-05-24T11:05:53.582Z,1.38
2023-05-24T11:06:53.441Z,1.44
2023-05-24T11:07:52.442Z,1.44
2023-05-24T11:08:53.438Z,1.40
2023-05-24T11:09:52.447Z,1.45
2023-05-24T11:10:52.445Z,1.43
2023-05-24T11:11:53.454Z,1.39
2023-05-24T11:12:52.404Z,1.34
2023-05-24T11:13:53.412Z,1.37
2023-05-24T11:14:52.797Z,1.44
2023-05-24T11:15:52.454Z,1.41
2023-05-24T11:16:53.539Z,1.41
2023-05-24T11:17:52.470Z,1.39
2023-05-24T11:18:52.407Z,1.40
2023-05-24T11:19:52.444Z,1.39
2023-05-24T11:20:52.491Z,1.33
2023-05-24T11:21:52.333Z,1.32
2023-05-24T11:22:53.340Z,1.34
2023-05-24T11:23:52.413Z,1.37
2023-05-24T11:24:53.508Z,1.41
2023-05-24T11:25:53.310Z,1.37
2023-05-24T11:26:53.313Z,1.34
2023-05-24T11:27:53.421Z,1.39
2023-05-24T11:28:52.324Z,1.34
2023-05-24T11:29:53.305Z,1.40
2023-05-24T11:30:53.308Z,1.39
2023-05-24T11:31:52.431Z,1.33
2023-05-24T11:32:52.312Z,1.33
2023-05-24T11:33:53.275Z,1.37
2023-05-24T11:34:53.261Z,1.30
2023-05-24T11:35:53.256Z,1.28
2023-05-24T11:36:53.272Z,1.28
2023-05-24T11:37:52.256Z,1.26
2023-05-24T11:38:53.267Z,1.19
2023-05-24T11:39:52.410Z,1.18
2023-05-24T11:40:52.476Z,1.28
2023-05-24T11:41:53.324Z,1.29
2023-05-24T11:42:52.326Z,1.26
2023-05-24T11:43:53.383Z,1.28
2023-05-24T11:44:53.368Z,1.24
2023-05-24T11:45:52.438Z,1.29
2023-05-24T11:46:53.388Z,1.31
2023-05-24T11:47:53.478Z,1.27
2023-05-24T11:48:53.423Z,1.18
2023-05-24T11:49:53.424Z,1.21
2023-05-24T11:50:52.565Z,1.24
2023-05-24T11:51:53.460Z,1.26
2023-05-24T11:52:53.481Z,1.26
2023-05-24T11:53:54.849Z,1.22
2023-05-24T11:54:53.524Z,1.23
2023-05-24T11:55:52.671Z,1.28
2023-05-24T11:56:53.578Z,1.27
2023-05-24T11:57:53.615Z,1.24
2023-05-24T11:58:53.715Z,1.22
2023-05-24T11:59:53.765Z,1.28
2023-05-24T12:00:53.796Z,1.29
2023-05-24T12:01:53.839Z,1.25
2023-05-24T12:02:54.721Z,1.26
2023-05-24T12:03:53.089Z,1.26
2023-05-24T12:04:53.961Z,1.25
2023-05-24T12:05:53.844Z,1.18
2023-05-24T12:06:53.864Z,1.21
2023-05-24T12:07:52.841Z,1.24
2023-05-24T12:08:52.855Z,1.14
2023-05-24T12:09:52.829Z,1.10
2023-05-24T12:10:53.818Z,0.97
2023-05-24T12:11:53.821Z,0.97
2023-05-24T12:12:53.823Z,1.06
2023-05-24T12:13:52.789Z,1.05
2023-05-24T12:14:52.815Z,0.91
2023-05-24T12:15:56.282Z,0.96
2023-05-24T12:16:52.822Z,0.96
2023-05-24T12:17:53.827Z,0.96
2023-05-24T12:19:04.110Z,0.85
2023-05-24T12:19:53.775Z,0.87
2023-05-24T12:20:52.782Z,0.87
2023-05-24T12:21:54.374Z,0.93
2023-05-24T12:22:53.931Z,0.95
2023-05-24T12:23:53.721Z,0.93
2023-05-24T12:24:53.717Z,0.98
2023-05-24T12:25:53.722Z,1.00
2023-05-24T12:26:52.715Z,1.02
2023-05-24T12:27:54.436Z,1.03
2023-05-24T12:28:52.689Z,1.06
2023-05-24T12:29:52.675Z,1.05
2023-05-24T12:30:53.777Z,1.08
2023-05-24T12:31:52.873Z,1.14
2023-05-24T12:32:53.822Z,1.13
2023-05-24T12:33:54.596Z,1.16
2023-05-24T12:34:52.643Z,1.14
2023-05-24T12:35:53.690Z,1.18
2023-05-24T12:36:53.640Z,1.19
2023-05-24T12:37:52.631Z,1.21
2023-05-24T12:38:52.625Z,1.25
2023-05-24T12:39:54.788Z,1.24
2023-05-24T12:41:10.831Z,1.27
2023-05-24T12:41:54.202Z,1.28
2023-05-24T12:42:52.623Z,1.28
2023-05-24T12:43:52.634Z,1.28
2023-05-24T12:44:53.609Z,1.30
2023-05-24T12:45:54.473Z,1.29
2023-05-24T12:46:53.769Z,1.33
2023-05-24T12:47:53.711Z,1.31
2023-05-24T12:48:52.584Z,1.35
2023-05-24T12:49:53.582Z,1.35
2023-05-24T12:50:53.556Z,1.35
2023-05-24T12:51:52.546Z,1.36
2023-05-24T12:52:52.552Z,1.36
2023-05-24T12:53:52.531Z,1.38
2023-05-24T12:54:53.538Z,1.36
2023-05-24T12:55:52.531Z,1.36
2023-05-24T12:56:55.625Z,1.38
2023-05-24T12:57:52.516Z,1.42
2023-05-24T12:58:53.515Z,1.40
2023-05-24T12:59:53.504Z,1.42
2023-05-24T13:00:53.528Z,1.42
2023-05-24T13:01:53.989Z,1.43
2023-05-24T13:02:53.504Z,1.45
2023-05-24T13:03:53.513Z,1.42
2023-05-24T13:04:53.514Z,1.42
2023-05-24T13:05:54.221Z,1.43
2023-05-24T13:06:53.455Z,1.44
2023-05-24T13:07:52.471Z,1.44
2023-05-24T13:08:53.452Z,1.47
2023-05-24T13:09:53.434Z,1.46
2023-05-24T13:10:53.432Z,1.48
2023-05-24T13:11:52.754Z,1.48
2023-05-24T13:12:53.419Z,1.46
2023-05-24T13:13:53.413Z,1.48
2023-05-24T13:14:53.431Z,1.47
2023-05-24T13:15:53.402Z,1.50
2023-05-24T13:16:53.475Z,1.54
2023-05-24T13:17:53.427Z,1.51
2023-05-24T13:18:53.387Z,1.51